CPH weather

Copenhagen Kastrup Airport
Copenhagen, Capital Region, Denmark

Public forecast

Using degrees Celsius for public forecast. Weather courtesy of forecast.io.

METAR (pilot weather report)

Retrieved 2018/04/22 04:20 UTC (0 seconds ago):

EKCH 220420Z 27003KT CAVOK 04/02 Q1017 NOSIG

TAF (pilot weather forecast)

Forecast is more than 12 hours old.

Retrieved 2018/04/21 00:16 UTC (1 day ago):

TAF EKCH 212304Z 2200/2224 VRB03KT CAVOK BECMG 2211/2214 15010KT